Terminal Aerodrome Forecast
Issued by NWS Cleveland, OH

Home | Current Version | Previous Version | Graphics & Text | Print | Product List | Glossary Off
Versions: 1 2 3 4 5 6 7 8 9 10 11 12 13 14

000
FTUS41 KCLE 272337
TAFERI
TAF
KERI 272337Z 2800/2824 19010KT P6SM BKN080 OVC250
     FM281100 15010G20KT P6SM OVC250
     FM281700 13015G25KT P6SM OVC100
     FM282200 10011KT P6SM OVC050=

USA.gov is the U.S. government's official web portal to all federal, state and local government web resources and services.